createdAt,value
2018-12-26T00:00:57.311Z,101292.69
2018-12-26T00:05:01.657Z,101298.45
2018-12-26T00:09:46.382Z,101304.26
2018-12-26T00:13:50.598Z,101310.95
2018-12-26T00:17:54.876Z,101302.28
2018-12-26T00:21:59.148Z,101304.00
2018-12-26T00:26:03.422Z,101296.59
2018-12-26T00:30:07.697Z,101293.48
2018-12-26T00:34:11.906Z,101296.59
2018-12-26T00:38:16.241Z,101297.56
2018-12-26T00:42:20.546Z,101308.72
2018-12-26T00:46:24.819Z,101301.81
2018-12-26T00:50:29.109Z,101298.54
2018-12-26T00:54:33.400Z,101306.86
2018-12-26T00:58:37.606Z,101300.89
2018-12-26T01:02:41.866Z,101300.81
2018-12-26T01:06:46.169Z,101305.22
2018-12-26T01:10:52.622Z,101314.52
2018-12-26T01:14:58.545Z,101301.94
2018-12-26T01:19:02.797Z,101309.14
2018-12-26T01:23:07.127Z,101305.72
2018-12-26T01:27:11.935Z,101307.50
2018-12-26T01:31:16.221Z,101308.34
2018-12-26T01:35:20.514Z,101294.95
2018-12-26T01:39:24.779Z,101300.09
2018-12-26T01:43:29.054Z,101286.16
2018-12-26T01:47:33.402Z,101287.46
2018-12-26T01:51:37.693Z,101277.49
2018-12-26T01:55:41.976Z,101277.49
2018-12-26T01:59:46.204Z,101270.89
2018-12-26T02:03:50.538Z,101269.50
2018-12-26T02:07:54.738Z,101264.96
2018-12-26T02:11:59.398Z,101261.39
2018-12-26T02:16:03.680Z,101257.31
2018-12-26T02:20:47.363Z,101259.42
2018-12-26T02:24:52.017Z,101256.18
2018-12-26T02:28:56.313Z,101259.59
2018-12-26T02:33:00.592Z,101259.59
2018-12-26T02:37:04.886Z,101253.49
2018-12-26T02:41:09.168Z,101251.05
2018-12-26T02:45:13.417Z,101243.07
2018-12-26T02:49:17.737Z,101246.77
2018-12-26T02:53:22.005Z,101236.93
2018-12-26T02:57:26.356Z,101229.66
2018-12-26T03:01:30.620Z,101219.56
2018-12-26T03:05:34.896Z,101216.45
2018-12-26T03:09:39.183Z,101205.06
2018-12-26T03:13:43.543Z,101190.22
2018-12-26T03:17:47.917Z,101187.48
2018-12-26T03:21:52.200Z,101186.98
2018-12-26T03:25:56.503Z,101199.52
2018-12-26T03:30:00.807Z,101202.13
2018-12-26T03:34:05.057Z,101203.30
2018-12-26T03:38:09.353Z,101194.17
2018-12-26T03:42:13.588Z,101196.20
2018-12-26T03:46:17.860Z,101200.45
2018-12-26T03:50:22.112Z,101194.98
2018-12-26T03:54:26.389Z,101194.52
2018-12-26T03:58:30.715Z,101194.52
2018-12-26T04:02:35.508Z,101201.03
2018-12-26T04:06:39.711Z,101177.83
2018-12-26T04:10:43.986Z,101176.11
2018-12-26T04:14:48.473Z,101185.56
2018-12-26T04:18:52.695Z,101179.38
2018-12-26T04:22:57.057Z,101173.17
2018-12-26T04:27:15.489Z,101178.88
2018-12-26T04:31:14.648Z,101180.19
2018-12-26T04:35:18.958Z,101187.92
2018-12-26T04:39:23.223Z,101197.38
2018-12-26T04:43:27.495Z,101207.80
2018-12-26T04:47:31.741Z,101217.34
2018-12-26T04:51:36.034Z,101205.11
2018-12-26T04:55:40.306Z,101206.50
2018-12-26T04:59:44.916Z,101209.91
2018-12-26T05:03:49.222Z,101215.63
2018-12-26T05:07:53.542Z,101212.43
2018-12-26T05:11:57.801Z,101211.08
2018-12-26T05:16:02.069Z,101212.38
2018-12-26T05:20:06.484Z,101202.00
2018-12-26T05:24:10.762Z,101206.75
2018-12-26T05:28:15.087Z,101199.27
2018-12-26T05:32:19.315Z,101201.88
2018-12-26T05:36:23.618Z,101204.56
2018-12-26T05:40:27.846Z,101198.05
2018-12-26T05:44:32.138Z,101208.05
2018-12-26T05:48:36.461Z,101206.66
2018-12-26T05:52:40.716Z,101202.34
2018-12-26T05:56:44.977Z,101203.64
2018-12-26T06:00:49.255Z,101209.77
2018-12-26T06:04:53.527Z,101215.45
2018-12-26T06:08:57.812Z,101209.36
2018-12-26T06:13:02.102Z,101204.23
2018-12-26T06:17:06.387Z,101205.45
2018-12-26T06:21:10.639Z,101204.23
2018-12-26T06:25:14.966Z,101207.72
2018-12-26T06:29:19.238Z,101224.66
2018-12-26T06:33:23.515Z,101227.69
2018-12-26T06:37:27.799Z,101229.16
2018-12-26T06:41:32.077Z,101218.23
2018-12-26T06:45:36.358Z,101217.34
2018-12-26T06:49:40.647Z,101211.38
2018-12-26T06:53:44.899Z,101222.13
2018-12-26T06:57:49.206Z,101214.31
2018-12-26T07:01:53.513Z,101199.35
2018-12-26T07:05:57.796Z,101196.74
2018-12-26T07:10:02.052Z,101189.81
2018-12-26T07:14:06.524Z,101195.44
2018-12-26T07:18:10.853Z,101197.21
2018-12-26T07:22:15.142Z,101194.36
2018-12-26T07:26:19.425Z,101190.45
2018-12-26T07:30:23.715Z,101191.75
2018-12-26T07:34:28.015Z,101190.53
2018-12-26T07:38:32.224Z,101173.59
2018-12-26T07:42:36.536Z,101175.78
2018-12-26T07:46:40.770Z,101192.72
2018-12-26T07:50:45.203Z,101206.25
2018-12-26T07:54:49.472Z,101208.52
2018-12-26T07:58:53.755Z,101198.27
2018-12-26T08:02:58.003Z,101179.43
2018-12-26T08:07:02.323Z,101168.20
2018-12-26T08:11:06.608Z,101159.80
2018-12-26T08:15:10.958Z,101161.60
2018-12-26T08:19:15.323Z,101173.83
2018-12-26T08:23:19.657Z,101184.00
2018-12-26T08:27:24.066Z,101185.86
2018-12-26T08:31:28.328Z,101180.38
2018-12-26T08:35:51.536Z,101175.75
2018-12-26T08:39:55.779Z,101163.68
2018-12-26T08:44:00.107Z,101162.37
2018-12-26T08:48:04.428Z,101168.72
2018-12-26T08:52:08.677Z,101170.98
2018-12-26T08:56:12.976Z,101170.19
2018-12-26T09:00:17.203Z,101164.84
2018-12-26T09:04:21.516Z,101158.05
2018-12-26T09:08:25.731Z,101166.54
2018-12-26T09:12:30.029Z,101173.77
2018-12-26T09:16:34.293Z,101187.04
2018-12-26T09:20:38.565Z,101176.16
2018-12-26T09:24:42.848Z,101170.95
2018-12-26T09:28:47.116Z,101172.92
2018-12-26T09:32:51.352Z,101186.13
2018-12-26T09:36:55.638Z,101171.23
2018-12-26T09:40:59.891Z,101166.36
2018-12-26T09:45:04.248Z,101139.33
2018-12-26T09:49:08.505Z,101147.50
2018-12-26T09:53:12.839Z,101150.69
2018-12-26T09:57:17.114Z,101146.35
2018-12-26T10:01:21.388Z,101138.98
2018-12-26T10:05:25.664Z,101122.58
2018-12-26T10:09:29.969Z,101124.34
2018-12-26T10:13:34.257Z,101119.34
2018-12-26T10:17:38.607Z,101108.47
2018-12-26T10:21:42.858Z,101098.73
2018-12-26T10:25:47.163Z,101092.55
2018-12-26T10:29:51.441Z,101092.89
2018-12-26T10:33:55.717Z,101086.16
2018-12-26T10:37:59.959Z,101085.11
2018-12-26T10:42:04.246Z,101080.53
2018-12-26T10:46:08.572Z,101083.60
2018-12-26T10:50:13.207Z,101082.16
2018-12-26T10:54:56.858Z,101077.08
2018-12-26T10:59:09.706Z,101063.00
2018-12-26T11:03:07.280Z,101052.83
2018-12-26T11:07:11.488Z,101053.28
2018-12-26T11:11:15.780Z,101046.23
2018-12-26T11:15:20.085Z,101044.22
2018-12-26T11:19:24.329Z,101049.02
2018-12-26T11:23:31.535Z,101047.11
2018-12-26T11:27:35.867Z,101045.66
2018-12-26T11:31:40.169Z,101048.73
2018-12-26T11:35:44.829Z,101048.06
2018-12-26T11:39:49.079Z,101054.77
2018-12-26T11:43:53.358Z,101048.84
2018-12-26T11:47:57.854Z,101053.36
2018-12-26T11:52:02.427Z,101052.33
2018-12-26T11:56:06.730Z,101056.84
2018-12-26T12:00:11.005Z,101054.05
2018-12-26T12:08:40.273Z,101059.24
2018-12-26T12:12:44.551Z,101063.89
2018-12-26T12:16:49.037Z,101051.32
2018-12-26T12:20:53.268Z,101067.07
2018-12-26T12:24:58.148Z,101061.17
2018-12-26T12:29:02.382Z,101059.88
2018-12-26T12:33:06.669Z,101056.41
2018-12-26T12:37:31.398Z,101052.34
2018-12-26T12:41:35.668Z,101039.11
2018-12-26T12:45:40.046Z,101041.02
2018-12-26T12:50:04.888Z,101036.73
2018-12-26T12:54:09.315Z,101042.52
2018-12-26T12:58:13.624Z,101041.50
2018-12-26T13:03:00.490Z,101036.73
2018-12-26T13:07:03.563Z,101042.55
2018-12-26T13:11:07.881Z,101042.55
2018-12-26T13:15:12.152Z,101042.61
2018-12-26T13:19:16.551Z,101046.47
2018-12-26T13:23:21.017Z,101048.62
2018-12-26T13:27:25.359Z,101047.70
2018-12-26T13:31:29.782Z,101045.52
2018-12-26T13:35:34.061Z,101045.52
2018-12-26T13:39:38.379Z,101047.77
2018-12-26T13:43:42.689Z,101048.62
2018-12-26T13:47:47.018Z,101051.59
2018-12-26T13:51:51.302Z,101053.49
2018-12-26T13:55:55.592Z,101056.47
2018-12-26T14:00:02.445Z,101055.84
2018-12-26T14:04:05.841Z,101052.83
2018-12-26T14:08:10.105Z,101055.77
2018-12-26T14:12:14.353Z,101053.93
2018-12-26T14:16:18.622Z,101061.21
2018-12-26T14:20:22.949Z,101047.48
2018-12-26T14:24:27.180Z,101049.00
2018-12-26T14:28:31.471Z,101046.50
2018-12-26T14:32:35.704Z,101045.94
2018-12-26T14:36:40.018Z,101046.75
2018-12-26T14:41:04.188Z,101041.21
2018-12-26T14:44:51.022Z,101047.57
2018-12-26T14:48:55.323Z,101041.95
2018-12-26T14:52:59.635Z,101044.98
2018-12-26T14:57:03.977Z,101043.89
2018-12-26T15:01:08.211Z,101042.94
2018-12-26T15:05:12.516Z,101044.45
2018-12-26T15:09:16.757Z,101047.06
2018-12-26T15:13:21.215Z,101059.97
2018-12-26T15:17:25.507Z,101064.30
2018-12-26T15:21:29.749Z,101057.48
2018-12-26T15:25:34.108Z,101063.83
2018-12-26T15:29:38.363Z,101071.86
2018-12-26T15:34:01.695Z,101059.47
2018-12-26T15:38:05.914Z,101058.52
2018-12-26T15:42:10.214Z,101058.16
2018-12-26T15:46:14.494Z,101061.20
2018-12-26T15:50:18.861Z,101064.16
2018-12-26T15:54:23.101Z,101067.11
2018-12-26T15:58:27.475Z,101073.28
2018-12-26T16:02:31.804Z,101071.48
2018-12-26T16:06:36.135Z,101068.41
2018-12-26T16:10:40.471Z,101067.77
2018-12-26T16:14:45.082Z,101072.91
2018-12-26T16:18:49.364Z,101076.22
2018-12-26T16:22:53.624Z,101087.45
2018-12-26T16:26:57.928Z,101084.46
2018-12-26T16:31:02.338Z,101079.98
2018-12-26T16:35:08.192Z,101084.05
2018-12-26T16:39:12.534Z,101086.38
2018-12-26T16:43:16.841Z,101080.70
2018-12-26T16:47:21.099Z,101072.52
2018-12-26T16:51:25.473Z,101067.84
2018-12-26T16:55:29.758Z,101065.31
2018-12-26T16:59:55.734Z,101073.21
2018-12-26T17:04:00.038Z,101071.09
2018-12-26T17:08:04.400Z,101063.87
2018-12-26T17:12:08.907Z,101065.65
2018-12-26T17:16:14.899Z,101067.94
2018-12-26T17:20:19.198Z,101066.29
2018-12-26T17:24:23.508Z,101060.80
2018-12-26T17:28:27.891Z,101056.95
2018-12-26T17:32:32.199Z,101065.81
2018-12-26T17:36:36.589Z,101066.23
2018-12-26T17:40:40.842Z,101064.66
2018-12-26T17:44:45.299Z,101062.43
2018-12-26T17:48:49.544Z,101064.66
2018-12-26T17:52:53.948Z,101059.51
2018-12-26T17:57:19.870Z,101064.84
2018-12-26T18:02:02.215Z,101065.69
2018-12-26T18:06:06.534Z,101067.59
2018-12-26T18:10:10.999Z,101076.53
2018-12-26T18:14:37.751Z,101072.12
2018-12-26T18:18:21.480Z,101074.73
2018-12-26T18:22:25.730Z,101068.34
2018-12-26T18:26:30.079Z,101064.92
2018-12-26T18:30:34.431Z,101061.96
2018-12-26T18:34:38.714Z,101070.14
2018-12-26T18:38:43.018Z,101065.20
2018-12-26T18:42:47.326Z,101064.64
2018-12-26T18:46:51.645Z,101065.87
2018-12-26T18:50:55.889Z,101067.59
2018-12-26T18:55:00.168Z,101062.88
2018-12-26T18:59:04.439Z,101065.13
2018-12-26T19:03:08.875Z,101061.56
2018-12-26T19:07:13.197Z,101046.28
2018-12-26T19:11:17.527Z,101065.06
2018-12-26T19:15:21.798Z,101058.25
2018-12-26T19:19:26.105Z,101062.59
2018-12-26T19:23:30.422Z,101071.05
2018-12-26T19:27:34.734Z,101060.11
2018-12-26T19:31:39.732Z,101063.88
2018-12-26T19:35:45.089Z,101062.85
2018-12-26T19:39:49.417Z,101065.67
2018-12-26T19:43:53.652Z,101063.19
2018-12-26T19:47:58.136Z,101065.92
2018-12-26T19:52:02.392Z,101061.13
2018-12-26T19:56:06.761Z,101065.99
2018-12-26T20:00:11.656Z,101062.30
2018-12-26T20:08:32.483Z,101053.03
2018-12-26T20:12:36.812Z,101059.75
2018-12-26T20:16:41.103Z,101055.52
2018-12-26T20:20:45.367Z,101061.27
2018-12-26T20:24:49.690Z,101056.94
2018-12-26T20:28:53.991Z,101047.41
2018-12-26T20:32:58.444Z,101047.87
2018-12-26T20:37:03.375Z,101039.72
2018-12-26T20:41:07.683Z,101026.31
2018-12-26T20:45:11.952Z,101037.71
2018-12-26T20:49:16.222Z,101032.63
2018-12-26T20:53:20.546Z,101034.89
2018-12-26T20:57:24.783Z,101037.50
2018-12-26T21:01:29.177Z,101030.55
2018-12-26T21:05:33.481Z,101032.35
2018-12-26T21:09:37.810Z,101024.09
2018-12-26T21:13:43.795Z,101026.17
2018-12-26T21:17:48.186Z,101027.80
2018-12-26T21:21:52.494Z,101019.44
2018-12-26T21:25:56.706Z,101011.46
2018-12-26T21:30:01.034Z,101004.79
2018-12-26T21:34:05.273Z,101015.94
2018-12-26T21:38:10.055Z,101006.30
2018-12-26T21:42:14.356Z,101007.61
2018-12-26T21:46:18.659Z,101012.37
2018-12-26T21:50:22.926Z,101014.41
2018-12-26T21:54:27.266Z,101013.39
2018-12-26T21:58:31.486Z,101008.52
2018-12-26T22:02:35.830Z,100998.08
2018-12-26T22:06:40.114Z,101002.95
2018-12-26T22:10:44.835Z,100996.42
2018-12-26T22:14:49.114Z,100995.11
2018-12-26T22:18:53.467Z,100995.46
2018-12-26T22:22:57.738Z,100994.16
2018-12-26T22:27:02.012Z,100998.95
2018-12-26T22:31:06.281Z,101001.11
2018-12-26T22:35:10.964Z,100996.77
2018-12-26T22:39:15.253Z,101004.18
2018-12-26T22:43:19.610Z,101002.69
2018-12-26T22:47:23.899Z,101006.61
2018-12-26T22:51:28.191Z,101009.22
2018-12-26T22:55:32.540Z,101006.53
2018-12-26T22:59:36.814Z,100999.94
2018-12-26T23:03:41.983Z,100993.77
2018-12-26T23:07:46.243Z,100996.08
2018-12-26T23:11:50.533Z,100997.59
2018-12-26T23:15:54.799Z,101002.34
2018-12-26T23:19:59.097Z,100998.28
2018-12-26T23:24:03.323Z,100996.76
2018-12-26T23:28:07.626Z,101001.02
2018-12-26T23:32:11.944Z,100998.34
2018-12-26T23:36:16.260Z,100993.27
2018-12-26T23:40:20.617Z,101004.66
2018-12-26T23:44:24.916Z,100999.52
2018-12-26T23:48:29.200Z,101004.73
2018-12-26T23:52:54.109Z,101013.44
2018-12-26T23:56:58.432Z,101017.50
